Time;durP1;ratioP1;P1;durP2;ratioP2;P2;SDS_P1;SDS_P2;PMS_P1;PMS_P2;Temp;Humidity;BMP_temperature;BMP_pressure;BME280_temperature;BME280_humidity;BME280_pressure;Samples;Min_cycle;Max_cycle;Signal;HPM_P1;HPM_P2
2020/12/17 00:01:57;;;;;;;;;;;;;;;10.37;55.19;101758.75;4958608;28;96517;-84
2020/12/17 00:04:23;;;;;;;;;;;;;;;10.02;56.48;101753.22;4958314;28;95928;-86
2020/12/17 00:06:50;;;;;;;;;;;;;;;10.44;55.53;101756.88;4943322;28;96053;-86
2020/12/17 00:09:16;;;;;;;;;;;;;;;10.52;55.02;101754.09;4954756;28;99515;-87
2020/12/17 00:11:43;;;;;;;;;;;;;;;10.41;55.04;101748.13;4953861;28;96839;-87
2020/12/17 00:14:09;;;;;;;;;;;;;;;10.43;55.30;101738.44;4953715;28;96683;-86
2020/12/17 00:16:38;;;;;;;;;;;;;;;10.32;55.41;101734.19;4945688;28;96629;-85
2020/12/17 00:19:04;;;;;;;;;;;;;;;10.36;55.29;101741.19;4950229;28;100092;-86
2020/12/17 00:21:30;;;;;;;;;;;;;;;10.33;55.41;101750.91;4952667;28;98173;-86
2020/12/17 00:23:56;;;;;;;;;;;;;;;10.36;55.15;101737.66;4951411;28;96767;-86
2020/12/17 00:26:25;;;;;;;;;;;;;;;10.05;55.97;101737.31;4937796;28;96848;-86
2020/12/17 00:28:51;;;;;;;;;;;;;;;9.79;56.69;101735.09;4937062;28;98923;-86
2020/12/17 00:31:17;;;;;;;;;;;;;;;9.96;56.38;101733.06;4929730;28;97943;-85
2020/12/17 00:33:43;;;;;;;;;;;;;;;9.90;56.30;101738.47;4936120;28;96684;-85
2020/12/17 00:36:37;;;;;;;;;;;;;;;9.88;56.16;101737.59;4942194;28;96867;-85
2020/12/17 00:39:07;;;;;;;;;;;;;;;10.16;55.56;101745.06;4954714;28;99324;-86
2020/12/17 00:41:33;;;;;;;;;;;;;;;9.83;56.36;101736.81;4959027;28;99470;-86
2020/12/17 00:44:04;;;;;;;;;;;;;;;10.26;55.26;101749.28;4956177;28;96744;-86
2020/12/17 00:46:30;;;;;;;;;;;;;;;10.10;55.68;101745.16;4959080;28;96591;-86
2020/12/17 00:48:56;;;;;;;;;;;;;;;10.16;55.41;101740.66;4957256;28;101627;-85
2020/12/17 00:51:22;;;;;;;;;;;;;;;10.51;54.30;101732.06;4937684;28;99319;-86
2020/12/17 00:53:49;;;;;;;;;;;;;;;10.12;55.17;101746.88;4953859;28;96706;-86
2020/12/17 00:56:26;;;;;;;;;;;;;;;10.00;55.46;101740.03;4954384;28;96603;-86
2020/12/17 00:58:53;;;;;;;;;;;;;;;10.07;55.51;101742.56;4955685;28;100398;-87
2020/12/17 01:01:19;;;;;;;;;;;;;;;9.94;55.93;101744.56;4954339;28;99574;-86
2020/12/17 01:03:46;;;;;;;;;;;;;;;9.99;55.87;101730.38;4952836;28;96774;-86
2020/12/17 01:06:13;;;;;;;;;;;;;;;9.71;56.76;101722.97;4936906;28;96685;-86
2020/12/17 01:08:40;;;;;;;;;;;;;;;9.76;56.45;101727.25;4954725;28;99793;-87
2020/12/17 01:11:06;;;;;;;;;;;;;;;9.45;57.21;101726.00;4954064;28;99884;-87
2020/12/17 01:13:34;;;;;;;;;;;;;;;9.59;57.12;101724.00;4953602;28;96855;-87
2020/12/17 01:16:00;;;;;;;;;;;;;;;9.86;56.17;101720.03;4940783;28;96516;-87
2020/12/17 01:18:26;;;;;;;;;;;;;;;9.83;56.46;101723.63;4948307;28;100480;-87
2020/12/17 01:20:53;;;;;;;;;;;;;;;9.95;55.49;101719.91;4956142;28;98624;-87
2020/12/17 01:23:19;;;;;;;;;;;;;;;9.76;56.49;101707.91;4950917;28;96638;-87
2020/12/17 01:25:47;;;;;;;;;;;;;;;9.88;55.65;101724.41;4959312;28;98734;-86
2020/12/17 01:28:14;;;;;;;;;;;;;;;9.86;56.09;101718.28;4941290;28;99247;-86
2020/12/17 01:30:55;;;;;;;;;;;;;;;10.14;55.44;101712.50;4959277;28;100811;-87
2020/12/17 01:33:27;;;;;;;;;;;;;;;9.87;55.69;101706.81;4969909;28;96855;-86
2020/12/17 01:35:53;;;;;;;;;;;;;;;9.65;56.64;101710.72;4964308;28;96674;-86
2020/12/17 01:38:19;;;;;;;;;;;;;;;10.04;55.67;101708.31;4949599;28;96990;-86
2020/12/17 01:40:45;;;;;;;;;;;;;;;10.16;54.84;101708.09;4974797;28;101678;-86
2020/12/17 01:43:12;;;;;;;;;;;;;;;9.80;55.86;101704.31;4958571;28;96686;-87
2020/12/17 01:45:38;;;;;;;;;;;;;;;9.67;55.87;101695.72;4954583;28;96665;-85
2020/12/17 01:48:05;;;;;;;;;;;;;;;9.50;56.34;101705.69;4954668;28;100335;-85
2020/12/17 01:50:32;;;;;;;;;;;;;;;9.88;55.63;101687.44;4954179;28;98147;-85
2020/12/17 01:52:59;;;;;;;;;;;;;;;9.97;55.40;101692.56;4975668;28;95989;-84
2020/12/17 01:55:28;;;;;;;;;;;;;;;9.97;55.34;101684.66;4960731;28;96853;-86
2020/12/17 01:57:56;;;;;;;;;;;;;;;9.89;55.42;101676.00;4943086;28;97926;-85
2020/12/17 02:00:23;;;;;;;;;;;;;;;10.00;55.03;101676.66;4936425;28;98182;-85
2020/12/17 02:02:49;;;;;;;;;;;;;;;9.70;55.47;101665.78;4954845;28;96401;-85
2020/12/17 02:05:15;;;;;;;;;;;;;;;9.43;56.64;101652.16;4944996;28;95961;-85
2020/12/17 02:07:44;;;;;;;;;;;;;;;9.43;56.68;101648.66;4945057;28;99288;-86
2020/12/17 02:10:10;;;;;;;;;;;;;;;9.51;56.45;101641.50;4942388;28;99395;-85
2020/12/17 02:12:43;;;;;;;;;;;;;;;9.59;56.21;101644.84;4960090;28;95944;-86
2020/12/17 02:15:10;;;;;;;;;;;;;;;9.57;56.40;101651.94;4962677;28;96911;-86
2020/12/17 02:17:37;;;;;;;;;;;;;;;9.42;56.54;101654.81;4958469;28;98289;-87
2020/12/17 02:20:04;;;;;;;;;;;;;;;9.29;57.19;101654.16;4954235;28;98582;-86
2020/12/17 02:22:30;;;;;;;;;;;;;;;9.30;56.85;101644.47;4956354;28;96696;-86
2020/12/17 02:24:57;;;;;;;;;;;;;;;9.09;57.65;101650.94;4943489;28;96733;-87
2020/12/17 02:27:24;;;;;;;;;;;;;;;9.26;57.36;101653.31;4974657;28;99680;-87
2020/12/17 02:29:50;;;;;;;;;;;;;;;9.46;56.74;101661.78;4977337;28;96704;-86
2020/12/17 02:32:16;;;;;;;;;;;;;;;9.44;56.58;101664.47;4973227;28;96651;-86
2020/12/17 02:34:43;;;;;;;;;;;;;;;8.85;58.42;101668.00;4974827;28;97021;-85
2020/12/17 02:37:10;;;;;;;;;;;;;;;9.18;56.89;101682.47;4971390;28;98306;-86
2020/12/17 02:39:38;;;;;;;;;;;;;;;9.55;56.07;101680.97;4970865;28;96872;-86
2020/12/17 02:42:05;;;;;;;;;;;;;;;9.40;56.02;101688.25;4971430;28;97878;-86
2020/12/17 02:44:31;;;;;;;;;;;;;;;9.45;56.31;101695.19;4966967;28;96760;-86
2020/12/17 02:46:57;;;;;;;;;;;;;;;9.16;56.90;101685.13;4961607;28;98446;-86
2020/12/17 02:49:23;;;;;;;;;;;;;;;9.50;56.36;101684.59;4967946;28;99147;-86
2020/12/17 02:51:49;;;;;;;;;;;;;;;9.43;56.14;101686.47;4970185;28;96671;-86
2020/12/17 02:54:17;;;;;;;;;;;;;;;9.32;56.18;101695.44;4968521;28;96901;-85
2020/12/17 02:56:43;;;;;;;;;;;;;;;9.44;55.94;101692.59;4952499;28;99757;-85
2020/12/17 02:59:10;;;;;;;;;;;;;;;9.52;55.68;101701.25;4968311;28;96682;-86
2020/12/17 03:01:37;;;;;;;;;;;;;;;9.35;56.17;101700.66;4972894;28;96621;-85
2020/12/17 03:04:04;;;;;;;;;;;;;;;9.32;56.32;101703.34;4976051;28;96811;-86
2020/12/17 03:06:30;;;;;;;;;;;;;;;9.04;56.98;101695.84;4973146;28;99386;-86
2020/12/17 03:08:57;;;;;;;;;;;;;;;9.08;56.98;101702.81;4961377;28;100067;-86
2020/12/17 03:11:23;;;;;;;;;;;;;;;9.38;56.43;101703.25;4959634;28;96553;-86
2020/12/17 03:13:53;;;;;;;;;;;;;;;9.36;56.35;101702.41;4973110;28;96551;-86
2020/12/17 03:16:20;;;;;;;;;;;;;;;9.12;56.32;101706.28;4973257;28;101095;-87
2020/12/17 03:18:49;;;;;;;;;;;;;;;9.42;55.91;101703.19;4949731;28;98103;-86
2020/12/17 03:21:24;;;;;;;;;;;;;;;9.11;56.42;101692.22;4965452;28;96868;-86
2020/12/17 03:23:50;;;;;;;;;;;;;;;9.26;56.11;101701.66;4970307;28;96718;-86
2020/12/17 03:26:19;;;;;;;;;;;;;;;9.25;56.05;101699.06;4956589;28;99400;-85
2020/12/17 03:28:45;;;;;;;;;;;;;;;9.24;56.05;101698.19;4951175;28;96668;-86
2020/12/17 03:31:11;;;;;;;;;;;;;;;9.41;55.40;101695.28;4952194;28;96687;-87
2020/12/17 03:33:39;;;;;;;;;;;;;;;9.27;56.05;101700.75;4952488;28;96996;-86
2020/12/17 03:36:05;;;;;;;;;;;;;;;9.68;54.96;101700.13;4951566;28;96821;-85
2020/12/17 03:38:31;;;;;;;;;;;;;;;9.51;54.90;101695.13;4943458;28;99749;-86
2020/12/17 03:40:58;;;;;;;;;;;;;;;9.33;55.28;101697.16;4934834;28;96580;-85
2020/12/17 03:43:24;;;;;;;;;;;;;;;9.45;55.33;101697.00;4935077;28;96664;-84
2020/12/17 03:45:51;;;;;;;;;;;;;;;9.40;55.43;101689.13;4949966;28;98127;-85
2020/12/17 03:48:19;;;;;;;;;;;;;;;9.28;55.72;101688.44;4952033;28;99473;-86
2020/12/17 03:50:46;;;;;;;;;;;;;;;9.33;55.32;101684.84;4953260;28;96801;-86
2020/12/17 03:53:13;;;;;;;;;;;;;;;9.09;55.70;101679.94;4966324;28;96738;-85
2020/12/17 03:55:46;;;;;;;;;;;;;;;8.92;56.66;101684.59;4953421;28;97476;-85
2020/12/17 03:58:12;;;;;;;;;;;;;;;8.54;57.50;101682.44;4954181;28;98741;-86
2020/12/17 04:00:48;;;;;;;;;;;;;;;8.84;56.63;101682.06;4955724;28;96622;-86
2020/12/17 04:03:14;;;;;;;;;;;;;;;8.93;56.27;101681.03;4957494;28;96538;-85
2020/12/17 04:05:40;;;;;;;;;;;;;;;9.20;55.40;101684.16;4957319;28;102019;-86
2020/12/17 04:08:07;;;;;;;;;;;;;;;9.06;55.99;101688.75;4957883;28;98720;-84
2020/12/17 04:10:34;;;;;;;;;;;;;;;8.83;56.51;101693.50;4976756;28;96595;-85
2020/12/17 04:13:00;;;;;;;;;;;;;;;9.00;55.83;101694.13;4961280;28;96024;-87
2020/12/17 04:15:34;;;;;;;;;;;;;;;9.28;55.01;101699.00;4962356;28;96976;-88
2020/12/17 04:18:07;;;;;;;;;;;;;;;8.91;55.60;101702.19;4953372;28;96926;-87
2020/12/17 04:20:34;;;;;;;;;;;;;;;9.04;55.63;101695.84;4948215;28;96626;-86
2020/12/17 04:23:01;;;;;;;;;;;;;;;8.96;55.47;101692.44;4958054;28;96476;-88
2020/12/17 04:25:31;;;;;;;;;;;;;;;8.76;56.35;101689.19;4957365;28;96604;-87
2020/12/17 04:27:57;;;;;;;;;;;;;;;8.78;56.09;101690.06;4955097;28;98711;-84
2020/12/17 04:30:26;;;;;;;;;;;;;;;9.05;55.44;101686.16;4956216;28;96787;-86
2020/12/17 04:32:55;;;;;;;;;;;;;;;8.98;55.40;101682.75;4957059;28;96878;-82
2020/12/17 04:35:21;;;;;;;;;;;;;;;9.17;54.85;101681.59;4956238;28;100128;-84
2020/12/17 04:37:46;;;;;;;;;;;;;;;9.20;54.58;101681.53;4951975;28;98149;-85
2020/12/17 04:40:12;;;;;;;;;;;;;;;9.03;55.29;101680.91;4958820;28;96546;-85
2020/12/17 04:45:24;;;;;;;;;;;;;;;8.76;55.82;101676.88;4959439;28;99200;-87
2020/12/17 04:47:54;;;;;;;;;;;;;;;8.76;55.70;101670.75;4967681;28;99387;-86
2020/12/17 04:50:22;;;;;;;;;;;;;;;8.94;55.20;101677.50;4964397;28;96710;-86
2020/12/17 04:52:52;;;;;;;;;;;;;;;8.97;55.23;101678.38;4960854;28;96762;-85
2020/12/17 04:55:18;;;;;;;;;;;;;;;8.63;55.53;101671.78;4960966;28;99776;-85
2020/12/17 04:57:47;;;;;;;;;;;;;;;8.66;55.91;101669.13;4960286;28;96942;-86
2020/12/17 05:00:14;;;;;;;;;;;;;;;8.05;57.09;101664.53;4961434;28;96511;-86
2020/12/17 05:02:47;;;;;;;;;;;;;;;8.46;56.52;101666.75;4961108;28;96051;-87
2020/12/17 05:05:14;;;;;;;;;;;;;;;8.24;57.04;101668.72;4945162;28;97479;-86
2020/12/17 05:07:41;;;;;;;;;;;;;;;8.56;56.52;101654.31;4950508;28;96773;-86
2020/12/17 05:10:08;;;;;;;;;;;;;;;8.60;56.03;101661.31;4963157;28;95742;-85
2020/12/17 05:12:34;;;;;;;;;;;;;;;8.62;56.15;101664.78;4963713;28;96147;-81
2020/12/17 05:15:01;;;;;;;;;;;;;;;8.60;55.60;101671.84;4961617;28;100122;-86
2020/12/17 05:17:27;;;;;;;;;;;;;;;8.28;56.58;101666.91;4960388;28;98182;-84
2020/12/17 05:19:54;;;;;;;;;;;;;;;8.22;57.27;101662.59;4959356;28;95963;-88
2020/12/17 05:22:20;;;;;;;;;;;;;;;8.18;57.07;101658.25;4956391;28;96531;-88
2020/12/17 05:24:48;;;;;;;;;;;;;;;8.34;56.39;101658.97;4961875;28;99508;-87
2020/12/17 05:27:23;;;;;;;;;;;;;;;8.54;56.21;101656.97;4960043;28;98699;-88
2020/12/17 05:29:50;;;;;;;;;;;;;;;8.57;55.81;101656.06;4961657;28;95925;-88
2020/12/17 05:32:20;;;;;;;;;;;;;;;8.53;55.74;101662.28;4962747;28;96172;-85
2020/12/17 05:34:46;;;;;;;;;;;;;;;8.66;55.87;101661.22;4962271;28;99754;-87
2020/12/17 05:37:22;;;;;;;;;;;;;;;8.29;56.22;101666.91;4957731;28;96636;-88
2020/12/17 05:39:49;;;;;;;;;;;;;;;8.24;56.51;101662.59;4954968;28;96858;-87
2020/12/17 05:42:18;;;;;;;;;;;;;;;7.89;57.76;101670.84;4946907;28;96785;-88
2020/12/17 05:44:44;;;;;;;;;;;;;;;8.19;57.01;101661.78;4953298;28;99269;-84
2020/12/17 05:47:13;;;;;;;;;;;;;;;8.02;57.22;101669.81;4943074;28;100220;-85
2020/12/17 05:49:40;;;;;;;;;;;;;;;8.25;56.76;101659.94;4953509;28;96709;-83
2020/12/17 05:52:11;;;;;;;;;;;;;;;8.28;56.45;101661.66;4949401;28;96906;-85
2020/12/17 05:54:37;;;;;;;;;;;;;;;8.25;56.36;101665.22;4936255;28;98152;-83
2020/12/17 05:57:08;;;;;;;;;;;;;;;8.20;56.75;101661.75;4954079;28;100267;-83
2020/12/17 05:59:35;;;;;;;;;;;;;;;8.36;55.95;101665.09;4957670;28;96468;-86
2020/12/17 06:02:19;;;;;;;;;;;;;;;8.44;55.87;101649.22;4959177;28;96607;-85
2020/12/17 06:04:46;;;;;;;;;;;;;;;8.39;55.67;101663.31;4935284;28;99114;-85
2020/12/17 06:07:14;;;;;;;;;;;;;;;8.05;56.57;101658.41;4956892;28;99843;-84
2020/12/17 06:09:44;;;;;;;;;;;;;;;8.18;56.22;101652.13;4948198;28;96672;-88
2020/12/17 06:12:11;;;;;;;;;;;;;;;8.22;56.05;101649.44;4951906;28;96948;-86
2020/12/17 06:14:38;;;;;;;;;;;;;;;7.94;56.80;101654.09;4951740;28;99014;-87
2020/12/17 06:17:06;;;;;;;;;;;;;;;8.00;56.68;101654.06;4940862;28;100817;-88
2020/12/17 06:19:33;;;;;;;;;;;;;;;7.64;57.49;101656.19;4937083;28;96636;-88
2020/12/17 06:22:08;;;;;;;;;;;;;;;7.89;56.88;101655.06;4937232;28;96976;-84
2020/12/17 06:24:34;;;;;;;;;;;;;;;8.10;56.33;101657.47;4948011;28;97875;-86
2020/12/17 06:27:03;;;;;;;;;;;;;;;8.15;56.04;101652.13;4944521;28;97984;-87
2020/12/17 06:29:38;;;;;;;;;;;;;;;7.67;57.24;101654.41;4951546;28;96757;-86
2020/12/17 06:32:15;;;;;;;;;;;;;;;7.54;57.49;101647.50;4953907;28;96884;-86
2020/12/17 06:34:45;;;;;;;;;;;;;;;7.64;57.64;101650.91;4951020;28;100065;-86
2020/12/17 06:37:14;;;;;;;;;;;;;;;7.29;58.66;101636.31;4953750;28;98094;-86
2020/12/17 06:39:47;;;;;;;;;;;;;;;7.58;58.09;101644.84;4952036;28;96856;-86
2020/12/17 06:42:28;;;;;;;;;;;;;;;7.78;57.40;101641.13;4942952;28;96897;-86
2020/12/17 06:44:54;;;;;;;;;;;;;;;7.74;57.22;101642.94;4955500;28;99941;-86
2020/12/17 06:47:26;;;;;;;;;;;;;;;7.77;56.98;101628.88;4942061;28;97766;-83
2020/12/17 06:49:52;;;;;;;;;;;;;;;7.60;57.52;101626.41;4949643;28;96610;-82
2020/12/17 06:52:20;;;;;;;;;;;;;;;7.76;56.96;101622.72;4951563;28;96619;-86
2020/12/17 06:54:46;;;;;;;;;;;;;;;7.66;57.03;101625.47;4949769;28;97050;-82
2020/12/17 06:57:13;;;;;;;;;;;;;;;7.56;57.45;101625.56;4947911;28;99908;-83
2020/12/17 06:59:42;;;;;;;;;;;;;;;7.51;57.56;101623.84;4953865;28;96398;-84
2020/12/17 07:02:08;;;;;;;;;;;;;;;7.82;56.68;101633.19;4952420;28;96800;-85
2020/12/17 07:04:39;;;;;;;;;;;;;;;7.66;57.23;101633.38;4952410;28;97977;-83
2020/12/17 07:10:27;;;;;;;;;;;;;;;7.98;56.17;101632.16;5071702;27;96414;-84
2020/12/17 07:12:53;;;;;;;;;;;;;;;7.87;56.51;101630.53;5069844;27;96800;-83
2020/12/17 07:15:37;;;;;;;;;;;;;;;8.29;55.24;101635.31;5071502;27;97759;-84
2020/12/17 07:18:17;;;;;;;;;;;;;;;8.42;55.03;101635.19;5071211;27;96868;-84
2020/12/17 07:20:44;;;;;;;;;;;;;;;8.25;55.29;101628.34;5073098;27;96519;-84
2020/12/17 07:23:11;;;;;;;;;;;;;;;8.22;55.33;101646.78;5074811;27;96649;-85
2020/12/17 07:25:48;;;;;;;;;;;;;;;7.94;56.40;101653.28;5073791;27;98111;-85
2020/12/17 07:28:15;;;;;;;;;;;;;;;8.24;55.46;101655.56;5074848;27;97100;-86
2020/12/17 07:30:57;;;;;;;;;;;;;;;8.45;54.96;101649.19;5074056;27;96555;-84
2020/12/17 07:33:42;;;;;;;;;;;;;;;8.82;53.76;101651.34;5071747;27;96845;-84
2020/12/17 07:36:23;;;;;;;;;;;;;;;8.65;53.91;101654.22;5073580;27;96491;-85
2020/12/17 07:38:52;;;;;;;;;;;;;;;8.74;53.48;101664.63;5071656;27;96719;-85
2020/12/17 07:41:31;;;;;;;;;;;;;;;8.56;54.44;101667.50;5073654;27;96442;-84
2020/12/17 07:44:12;;;;;;;;;;;;;;;8.56;54.51;101672.75;5370005;22;100198;-84
2020/12/17 07:46:42;;;;;;;;;;;;;;;8.44;54.50;101665.88;5057689;27;96645;-82
2020/12/17 07:49:21;;;;;;;;;;;;;;;8.45;54.28;101659.75;5058117;27;96599;-83
2020/12/17 07:51:50;;;;;;;;;;;;;;;8.53;54.18;101662.28;5058279;27;95835;-84
2020/12/17 07:54:21;;;;;;;;;;;;;;;8.42;54.80;101656.25;5058359;27;96351;-84
2020/12/17 07:56:50;;;;;;;;;;;;;;;8.67;54.17;101653.28;5057437;27;96468;-83
2020/12/17 07:59:47;;;;;;;;;;;;;;;8.71;54.03;101655.00;5056494;27;96910;-82
2020/12/17 08:02:24;;;;;;;;;;;;;;;8.70;53.60;101639.22;5057507;27;96303;-82
2020/12/17 08:04:56;;;;;;;;;;;;;;;8.47;54.50;101654.47;5054688;27;97040;-83
2020/12/17 08:10:07;;;;;;;;;;;;;;;8.66;54.41;101640.16;5245138;22;98859;-85
2020/12/17 08:12:36;;;;;;;;;;;;;;;8.55;54.47;101656.09;5073213;27;96507;-84
2020/12/17 08:15:07;;;;;;;;;;;;;;;8.59;54.13;101643.75;5070797;27;96565;-84
2020/12/17 08:17:36;;;;;;;;;;;;;;;8.89;53.66;101653.88;5068121;27;96990;-83
2020/12/17 08:20:05;;;;;;;;;;;;;;;8.99;53.53;101650.19;5064794;27;96593;-85
2020/12/17 08:22:33;;;;;;;;;;;;;;;8.66;53.76;101648.91;5054174;28;96504;-85
2020/12/17 08:30:51;;;;;;;;;;;;;;;8.69;53.94;101642.72;5057663;28;97394;-84
2020/12/17 08:36:28;;;;;;;;;;;;;;;8.96;53.03;101660.81;5061934;28;96575;-84
2020/12/17 08:38:55;;;;;;;;;;;;;;;9.06;52.92;101651.84;5060855;28;96902;-84
2020/12/17 08:41:26;;;;;;;;;;;;;;;8.76;53.41;101649.66;5059275;28;96617;-85
2020/12/17 08:46:49;;;;;;;;;;;;;;;9.05;52.80;101665.94;5056368;28;96500;-86
2020/12/17 08:49:17;;;;;;;;;;;;;;;8.90;53.53;101671.44;5059250;28;97848;-84
2020/12/17 08:51:45;;;;;;;;;;;;;;;8.77;53.69;101667.22;5059283;28;96765;-83
2020/12/17 08:54:23;;;;;;;;;;;;;;;8.63;54.26;101669.16;5060146;28;95781;-83
2020/12/17 08:56:57;;;;;;;;;;;;;;;9.07;53.13;101665.91;5061103;27;96618;-84
2020/12/17 08:59:28;;;;;;;;;;;;;;;8.99;53.31;101663.38;5061697;27;96842;-84
2020/12/17 09:01:58;;;;;;;;;;;;;;;9.07;52.79;101664.13;5062756;27;96740;-85
2020/12/17 09:04:27;;;;;;;;;;;;;;;9.30;52.22;101671.72;5063376;27;97111;-84
2020/12/17 09:12:12;;;;;;;;;;;;;;;9.08;52.85;101680.84;5255421;23;100940;-82
2020/12/17 09:20:35;;;;;;;;;;;;;;;9.67;51.48;101666.69;5186183;23;99567;-84
2020/12/17 09:25:39;;;;;;;;;;;;;;;9.68;51.31;101665.81;5061864;23;100001;-84
2020/12/17 09:31:01;;;;;;;;;;;;;;;9.62;51.32;101662.41;4921134;28;99008;-84
2020/12/17 09:36:27;;;;;;;;;;;;;;;9.95;50.52;101670.59;4922618;28;95948;-85
2020/12/17 09:39:03;;;;;;;;;;;;;;;9.79;51.36;101676.16;4922667;28;95895;-84
2020/12/17 09:41:30;;;;;;;;;;;;;;;9.86;51.01;101667.25;4921926;28;100095;-85
2020/12/17 09:50:00;;;;;;;;;;;;;;;9.83;51.22;101657.63;4922479;28;96465;-86
2020/12/17 09:57:55;;;;;;;;;;;;;;;9.88;51.04;101661.06;4939664;23;96479;-86
2020/12/17 10:11:48;;;;;;;;;;;;;;;9.81;51.09;101632.16;5318140;23;99485;-86
2020/12/17 10:17:11;;;;;;;;;;;;;;;10.03;50.98;101620.28;4935085;28;97701;-81
2020/12/17 10:19:39;;;;;;;;;;;;;;;9.99;51.48;101619.47;4965308;28;95860;-83
2020/12/17 10:22:23;;;;;;;;;;;;;;;10.34;50.24;101620.56;4966255;28;97147;-83
2020/12/17 10:33:17;;;;;;;;;;;;;;;10.28;50.86;101623.34;4937656;26;96499;-83
2020/12/17 10:35:52;;;;;;;;;;;;;;;10.71;49.72;101618.00;4959896;28;99520;-85
2020/12/17 10:41:03;;;;;;;;;;;;;;;11.21;48.61;101615.97;4940163;23;96100;-83
2020/12/17 10:43:30;;;;;;;;;;;;;;;11.18;48.58;101603.69;4904729;28;96585;-82
2020/12/17 10:45:56;;;;;;;;;;;;;;;10.98;49.21;101605.94;4917422;28;101672;-83
2020/12/17 10:48:23;;;;;;;;;;;;;;;11.01;48.90;101608.53;4898399;28;100157;-83
2020/12/17 10:50:51;;;;;;;;;;;;;;;11.18;48.73;101608.97;4898561;28;96722;-82
2020/12/17 10:55:52;;;;;;;;;;;;;;;11.66;47.42;101606.88;4951854;28;97392;-83
2020/12/17 10:58:21;;;;;;;;;;;;;;;10.95;48.73;101609.53;4951101;22;96945;-82
2020/12/17 11:00:52;;;;;;;;;;;;;;;11.33;48.00;101598.03;4936696;28;96458;-83
2020/12/17 11:03:30;;;;;;;;;;;;;;;11.37;47.96;101599.66;4935653;28;96734;-84
2020/12/17 11:05:59;;;;;;;;;;;;;;;11.59;47.72;101598.22;4967879;28;99140;-84
2020/12/17 11:08:26;;;;;;;;;;;;;;;11.51;47.61;101596.69;4948613;28;98813;-82
2020/12/17 11:10:52;;;;;;;;;;;;;;;11.35;48.02;101590.94;4974103;28;96584;-82
2020/12/17 11:13:26;;;;;;;;;;;;;;;11.37;48.09;101591.72;4942602;28;96302;-82
2020/12/17 11:15:53;;;;;;;;;;;;;;;11.91;47.18;101596.50;4938818;28;97745;-84
2020/12/17 11:21:19;;;;;;;;;;;;;;;11.88;47.13;101591.31;4957955;28;96662;-82
2020/12/17 11:24:01;;;;;;;;;;;;;;;11.75;47.56;101604.00;4958463;28;96590;-83
2020/12/17 11:26:41;;;;;;;;;;;;;;;11.43;48.06;101609.22;4960172;28;101702;-83
2020/12/17 11:29:07;;;;;;;;;;;;;;;11.46;48.37;101599.44;4975117;28;96931;-82
2020/12/17 11:31:50;;;;;;;;;;;;;;;11.41;48.48;101604.00;4969252;28;96677;-85
2020/12/17 11:45:16;;;;;;;;;;;;;;;11.88;47.47;101584.22;4962375;28;96777;-82
2020/12/17 11:47:45;;;;;;;;;;;;;;;11.99;47.32;101583.94;4958183;28;97595;-84
2020/12/17 11:50:11;;;;;;;;;;;;;;;12.10;47.30;101587.16;4970162;28;98809;-82
2020/12/17 11:52:44;;;;;;;;;;;;;;;12.25;46.96;101580.53;4956818;28;96676;-83
2020/12/17 11:55:12;;;;;;;;;;;;;;;12.16;47.09;101581.66;4974901;28;96572;-82
2020/12/17 11:57:41;;;;;;;;;;;;;;;11.94;47.63;101575.25;4979632;28;99284;-82
2020/12/17 12:00:09;;;;;;;;;;;;;;;12.48;46.41;101571.88;4967497;28;99867;-82
2020/12/17 12:02:36;;;;;;;;;;;;;;;12.51;46.15;101577.13;4958845;28;96850;-82
2020/12/17 12:05:06;;;;;;;;;;;;;;;12.26;46.66;101575.22;4956677;28;96936;-82
2020/12/17 12:08:02;;;;;;;;;;;;;;;11.74;47.74;101569.66;4955859;28;100919;-82
2020/12/17 12:10:28;;;;;;;;;;;;;;;12.03;47.32;101587.34;4946260;28;96710;-84
2020/12/17 12:12:59;;;;;;;;;;;;;;;11.90;47.49;101581.53;4954531;28;96536;-82
2020/12/17 12:15:26;;;;;;;;;;;;;;;11.95;47.35;101587.56;4966610;28;96921;-83
2020/12/17 12:17:52;;;;;;;;;;;;;;;11.76;47.84;101581.03;4958552;28;97384;-82
2020/12/17 12:20:19;;;;;;;;;;;;;;;11.41;48.70;101587.25;4978058;28;99083;-85
2020/12/17 12:22:46;;;;;;;;;;;;;;;11.92;48.06;101571.78;4973095;28;96570;-82
2020/12/17 12:25:13;;;;;;;;;;;;;;;12.08;47.52;101562.47;4956901;28;96739;-84
2020/12/17 12:27:40;;;;;;;;;;;;;;;11.61;48.46;101571.72;4971368;28;96913;-84
2020/12/17 12:30:07;;;;;;;;;;;;;;;11.93;47.84;101571.75;4955421;28;97311;-84
2020/12/17 12:32:35;;;;;;;;;;;;;;;11.93;48.09;101563.78;4940517;28;96806;-83
2020/12/17 12:37:46;;;;;;;;;;;;;;;11.95;47.84;101566.38;4937471;28;98880;-83
2020/12/17 12:40:12;;;;;;;;;;;;;;;12.17;47.25;101562.22;4933848;28;99141;-84
2020/12/17 12:42:39;;;;;;;;;;;;;;;12.10;47.63;101567.72;4941549;28;96958;-83
2020/12/17 12:45:06;;;;;;;;;;;;;;;12.23;47.36;101562.03;4952046;28;96667;-83
2020/12/17 12:47:33;;;;;;;;;;;;;;;11.87;48.06;101563.09;4951922;28;101786;-82
2020/12/17 12:49:59;;;;;;;;;;;;;;;12.12;47.61;101544.72;4957295;28;100034;-81
2020/12/17 12:52:26;;;;;;;;;;;;;;;12.05;47.79;101546.69;4934005;28;96757;-83
2020/12/17 12:54:52;;;;;;;;;;;;;;;12.62;46.45;101551.13;4947482;28;96719;-83
2020/12/17 12:57:20;;;;;;;;;;;;;;;12.25;47.32;101557.56;4944692;28;97047;-83
2020/12/17 12:59:46;;;;;;;;;;;;;;;12.12;47.73;101550.88;4963790;28;99193;-85
2020/12/17 13:02:27;;;;;;;;;;;;;;;12.28;47.49;101559.22;4962695;28;96630;-83
2020/12/17 13:07:35;;;;;;;;;;;;;;;12.60;46.81;101555.63;4962822;28;96890;-84
2020/12/17 13:12:38;;;;;;;;;;;;;;;13.38;44.88;101572.56;5271246;22;98964;-83
2020/12/17 13:15:39;;;;;;;;;;;;;;;13.31;44.99;101584.31;5035806;23;96630;-82
2020/12/17 13:26:02;;;;;;;;;;;;;;;12.78;46.35;101582.44;5033008;23;98884;-84
2020/12/17 13:31:15;;;;;;;;;;;;;;;12.55;47.29;101589.34;5436705;23;100461;-84
2020/12/17 13:33:41;;;;;;;;;;;;;;;12.75;46.87;101595.78;4942173;28;96353;-83
2020/12/17 13:36:12;;;;;;;;;;;;;;;12.92;46.42;101587.31;4943181;28;96548;-83
2020/12/17 13:38:51;;;;;;;;;;;;;;;12.89;46.34;101600.66;4941602;28;99015;-84
2020/12/17 13:41:22;;;;;;;;;;;;;;;13.05;46.22;101606.38;4930456;28;99443;-82
2020/12/17 13:46:31;;;;;;;;;;;;;;;13.26;45.64;101618.94;4918751;28;96020;-83
2020/12/17 13:49:08;;;;;;;;;;;;;;;13.00;46.06;101609.13;4939006;28;96655;-83
2020/12/17 13:51:44;;;;;;;;;;;;;;;12.71;47.11;101612.72;4939791;28;96784;-86
2020/12/17 14:02:40;;;;;;;;;;;;;;;12.43;47.87;101602.97;4938411;28;96713;-84
2020/12/17 14:05:11;;;;;;;;;;;;;;;12.50;48.01;101607.19;4940086;28;96626;-84
2020/12/17 14:07:50;;;;;;;;;;;;;;;12.79;47.40;101617.78;4939458;28;96651;-82
2020/12/17 14:10:20;;;;;;;;;;;;;;;12.83;47.27;101622.06;4937562;28;96992;-84
2020/12/17 14:12:55;;;;;;;;;;;;;;;12.31;48.68;101623.63;4936801;28;99551;-85
2020/12/17 14:15:37;;;;;;;;;;;;;;;12.60;48.09;101624.56;4937709;28;96766;-83
2020/12/17 14:18:06;;;;;;;;;;;;;;;12.83;47.50;101626.50;4917555;28;96746;-83
2020/12/17 14:20:33;;;;;;;;;;;;;;;12.82;47.43;101625.63;4921650;28;98153;-83
2020/12/17 14:23:00;;;;;;;;;;;;;;;12.81;47.38;101634.50;4936395;28;101552;-83
2020/12/17 14:25:26;;;;;;;;;;;;;;;12.55;48.03;101639.72;4936756;28;96466;-84
2020/12/17 14:27:55;;;;;;;;;;;;;;;12.56;48.16;101629.06;4938453;28;96655;-83
2020/12/17 14:30:21;;;;;;;;;;;;;;;12.76;47.50;101631.13;4936249;28;99805;-82
2020/12/17 14:32:47;;;;;;;;;;;;;;;12.80;47.59;101643.38;4930666;28;101404;-84
2020/12/17 14:35:25;;;;;;;;;;;;;;;12.93;47.15;101644.72;4933948;28;96305;-83
2020/12/17 14:37:52;;;;;;;;;;;;;;;12.85;47.55;101652.09;4939967;28;96492;-83
2020/12/17 14:43:02;;;;;;;;;;;;;;;12.70;48.09;101666.66;4919952;28;96611;-83
2020/12/17 14:45:36;;;;;;;;;;;;;;;12.52;48.52;101664.56;4930377;28;96512;-83
2020/12/17 14:48:12;;;;;;;;;;;;;;;12.20;49.54;101668.13;4916937;28;96557;-84
2020/12/17 14:50:43;;;;;;;;;;;;;;;12.01;49.77;101666.88;4916435;28;97902;-84
2020/12/17 14:53:09;;;;;;;;;;;;;;;12.14;49.75;101665.63;4920030;28;98297;-81
2020/12/17 14:55:40;;;;;;;;;;;;;;;12.54;49.06;101668.00;4919306;28;96678;-81
2020/12/17 14:58:05;;;;;;;;;;;;;;;12.72;48.43;101671.94;4919150;28;96705;-82
2020/12/17 15:00:31;;;;;;;;;;;;;;;12.76;48.38;101674.44;4927305;28;100094;-81